createdAt,value
2022-11-14T00:01:05.882Z,86.35
2022-11-14T00:03:32.494Z,96.80
2022-11-14T00:05:59.007Z,101.93
2022-11-14T00:08:25.652Z,96.43
2022-11-14T00:10:52.474Z,87.55
2022-11-14T00:13:21.042Z,96.82
2022-11-14T00:15:54.571Z,122.22
2022-11-14T00:18:22.144Z,114.80
2022-11-14T00:20:50.426Z,109.63
2022-11-14T00:23:17.595Z,112.15
2022-11-14T00:25:45.433Z,110.65
2022-11-14T00:28:12.815Z,110.32
2022-11-14T00:30:39.504Z,107.13
2022-11-14T00:33:06.053Z,102.13
2022-11-14T00:35:32.658Z,100.65
2022-11-14T00:37:59.218Z,101.88
2022-11-14T00:40:25.809Z,102.68
2022-11-14T00:42:52.502Z,98.95
2022-11-14T00:45:19.461Z,105.68
2022-11-14T00:47:45.998Z,99.65
2022-11-14T00:50:12.961Z,102.80
2022-11-14T00:52:39.566Z,100.88
2022-11-14T00:55:06.927Z,103.80
2022-11-14T00:57:33.849Z,103.53
2022-11-14T01:00:00.482Z,103.25
2022-11-14T01:02:27.200Z,105.93
2022-11-14T01:04:54.024Z,106.80
2022-11-14T01:07:20.688Z,108.38
2022-11-14T01:09:47.221Z,109.32
2022-11-14T01:12:13.981Z,105.45
2022-11-14T01:14:41.113Z,113.25
2022-11-14T01:17:28.750Z,119.78
2022-11-14T01:19:55.335Z,118.05
2022-11-14T01:22:21.878Z,113.60
2022-11-14T01:24:48.496Z,116.50
2022-11-14T01:27:15.015Z,104.75
2022-11-14T01:29:41.709Z,101.95
2022-11-14T01:32:08.398Z,105.50
2022-11-14T01:34:35.295Z,94.70
2022-11-14T01:37:01.887Z,94.60
2022-11-14T01:39:28.896Z,99.57
2022-11-14T01:41:55.931Z,96.68
2022-11-14T01:44:44.109Z,95.35
2022-11-14T01:47:13.813Z,89.53
2022-11-14T01:49:44.395Z,90.63
2022-11-14T01:52:16.171Z,92.68
2022-11-14T01:54:46.898Z,94.80
2022-11-14T01:57:18.402Z,92.20
2022-11-14T01:59:51.885Z,93.70
2022-11-14T02:02:21.564Z,96.63
2022-11-14T02:04:53.744Z,97.75
2022-11-14T02:07:20.599Z,100.57
2022-11-14T02:09:49.078Z,92.78
2022-11-14T02:12:18.376Z,97.70
2022-11-14T02:14:47.451Z,93.30
2022-11-14T02:17:29.411Z,95.97
2022-11-14T02:20:10.800Z,89.88
2022-11-14T02:22:39.500Z,91.60
2022-11-14T02:25:07.623Z,89.47
2022-11-14T02:27:35.311Z,95.20
2022-11-14T02:30:14.237Z,90.47
2022-11-14T02:33:11.299Z,93.53
2022-11-14T02:35:27.909Z,100.00
2022-11-14T02:37:54.561Z,101.75
2022-11-14T02:40:21.284Z,100.78
2022-11-14T02:42:48.286Z,94.05
2022-11-14T02:45:14.970Z,94.85
2022-11-14T02:47:41.559Z,93.30
2022-11-14T02:50:08.609Z,84.72
2022-11-14T02:52:35.281Z,95.93
2022-11-14T02:55:01.810Z,95.28
2022-11-14T02:57:28.366Z,89.47
2022-11-14T02:59:54.981Z,87.28
2022-11-14T03:02:21.800Z,83.28
2022-11-14T03:04:48.414Z,87.35
2022-11-14T03:07:15.088Z,93.00
2022-11-14T03:09:41.757Z,94.80
2022-11-14T03:12:08.568Z,86.90
2022-11-14T03:14:35.410Z,94.95
2022-11-14T03:17:02.283Z,84.82
2022-11-14T03:19:28.857Z,83.35
2022-11-14T03:21:55.464Z,85.22
2022-11-14T03:24:22.439Z,88.68
2022-11-14T03:26:49.006Z,85.03
2022-11-14T03:29:15.743Z,87.85
2022-11-14T03:31:42.733Z,80.88
2022-11-14T03:34:10.670Z,82.40
2022-11-14T03:36:38.012Z,77.80
2022-11-14T03:39:05.769Z,82.05
2022-11-14T03:41:32.943Z,76.55
2022-11-14T03:43:59.698Z,68.28
2022-11-14T03:46:26.281Z,77.10
2022-11-14T03:48:52.951Z,73.25
2022-11-14T03:51:19.545Z,68.75
2022-11-14T03:53:46.209Z,72.60
2022-11-14T03:56:12.987Z,67.28
2022-11-14T03:58:39.694Z,68.25
2022-11-14T04:01:06.406Z,71.10
2022-11-14T04:03:33.148Z,87.45
2022-11-14T04:05:59.873Z,82.75
2022-11-14T04:08:26.532Z,76.25
2022-11-14T04:10:53.155Z,77.68
2022-11-14T04:13:19.752Z,83.45
2022-11-14T04:15:46.442Z,73.60
2022-11-14T04:18:13.142Z,67.60
2022-11-14T04:20:39.766Z,70.68
2022-11-14T04:23:06.392Z,69.85
2022-11-14T04:25:32.943Z,73.32
2022-11-14T04:27:59.870Z,69.80
2022-11-14T04:30:29.696Z,73.88
2022-11-14T04:32:58.670Z,73.68
2022-11-14T04:35:25.290Z,70.93
2022-11-14T04:37:51.981Z,69.50
2022-11-14T04:40:18.619Z,65.00
2022-11-14T04:43:03.788Z,69.15
2022-11-14T04:45:30.547Z,66.03
2022-11-14T04:47:57.213Z,71.68
2022-11-14T04:50:23.974Z,66.70
2022-11-14T04:52:53.933Z,66.65
2022-11-14T04:55:20.630Z,75.60
2022-11-14T04:57:47.526Z,73.43
2022-11-14T05:00:14.850Z,72.28
2022-11-14T05:02:41.463Z,80.38
2022-11-14T05:05:08.516Z,72.70
2022-11-14T05:07:35.267Z,74.53
2022-11-14T05:10:02.013Z,74.93
2022-11-14T05:12:28.604Z,85.97
2022-11-14T05:14:55.184Z,85.70
2022-11-14T05:17:22.690Z,90.32
2022-11-14T05:19:49.359Z,88.13
2022-11-14T05:22:16.027Z,93.05
2022-11-14T05:24:42.637Z,100.60
2022-11-14T05:27:09.181Z,95.05
2022-11-14T05:29:35.853Z,120.32
2022-11-14T05:32:02.670Z,266.60
2022-11-14T05:34:29.279Z,366.75
2022-11-14T05:36:55.927Z,187.18
2022-11-14T05:39:22.525Z,202.95
2022-11-14T05:41:49.039Z,250.73
2022-11-14T05:44:15.639Z,377.70
2022-11-14T05:46:42.326Z,140.65
2022-11-14T05:49:09.054Z,182.30
2022-11-14T05:51:35.689Z,204.65
2022-11-14T05:54:02.722Z,212.70
2022-11-14T05:56:29.427Z,271.80
2022-11-14T05:58:56.372Z,371.00
2022-11-14T06:01:23.071Z,248.48
2022-11-14T06:03:50.073Z,327.88
2022-11-14T06:06:19.909Z,238.07
2022-11-14T06:08:47.309Z,319.83
2022-11-14T06:11:20.052Z,272.20
2022-11-14T06:13:47.368Z,463.80
2022-11-14T06:16:16.721Z,299.13
2022-11-14T06:18:43.804Z,243.57
2022-11-14T06:21:13.003Z,247.75
2022-11-14T06:23:40.145Z,155.13
2022-11-14T06:26:12.932Z,384.80
2022-11-14T06:28:39.655Z,279.58
2022-11-14T06:31:06.196Z,198.02
2022-11-14T06:33:36.959Z,310.75
2022-11-14T06:36:08.489Z,207.15
2022-11-14T06:38:37.146Z,156.05
2022-11-14T06:41:18.855Z,262.10
2022-11-14T06:43:47.806Z,140.10
2022-11-14T06:46:17.758Z,292.42
2022-11-14T06:48:45.324Z,180.65
2022-11-14T06:51:13.379Z,152.88
2022-11-14T06:53:40.493Z,160.63
2022-11-14T06:56:15.614Z,158.93
2022-11-14T06:58:48.298Z,154.50
2022-11-14T07:01:17.921Z,112.25
2022-11-14T07:03:45.882Z,193.98
2022-11-14T07:06:18.167Z,176.48
2022-11-14T07:08:44.816Z,84.47
2022-11-14T07:11:23.511Z,84.50
2022-11-14T07:13:52.198Z,77.65
2022-11-14T07:16:19.956Z,78.18
2022-11-14T07:18:46.995Z,80.28
2022-11-14T07:21:13.769Z,63.58
2022-11-14T07:23:41.611Z,58.70
2022-11-14T07:26:11.645Z,64.53
2022-11-14T07:28:40.582Z,64.95
2022-11-14T07:31:09.287Z,71.72
2022-11-14T07:33:36.446Z,70.13
2022-11-14T07:36:03.781Z,79.78
2022-11-14T07:38:31.702Z,65.13
2022-11-14T07:41:01.356Z,69.82
2022-11-14T07:43:29.108Z,66.95
2022-11-14T07:46:00.178Z,63.47
2022-11-14T07:48:27.709Z,63.92
2022-11-14T07:50:59.176Z,65.57
2022-11-14T07:53:25.844Z,62.60
2022-11-14T07:55:52.704Z,65.60
2022-11-14T07:58:19.266Z,147.48
2022-11-14T08:00:45.956Z,114.68
2022-11-14T08:03:12.915Z,80.85
2022-11-14T08:05:39.559Z,85.25
2022-11-14T08:08:06.259Z,77.78
2022-11-14T08:10:33.973Z,72.40
2022-11-14T08:13:31.814Z,76.30
2022-11-14T08:15:49.836Z,72.50
2022-11-14T08:18:16.464Z,60.17
2022-11-14T08:20:44.073Z,55.65
2022-11-14T08:23:15.159Z,59.85
2022-11-14T08:25:42.313Z,63.42
2022-11-14T08:28:09.308Z,59.58
2022-11-14T08:30:36.032Z,61.05
2022-11-14T08:33:04.708Z,56.53
2022-11-14T08:35:33.314Z,58.63
2022-11-14T08:38:02.801Z,52.97
2022-11-14T08:40:29.887Z,51.67
2022-11-14T08:43:02.167Z,48.75
2022-11-14T08:45:29.756Z,50.45
2022-11-14T08:47:56.919Z,51.70
2022-11-14T08:50:24.546Z,48.92
2022-11-14T08:52:52.225Z,48.45
2022-11-14T08:55:20.192Z,46.22
2022-11-14T08:57:49.716Z,47.15
2022-11-14T09:00:17.425Z,43.25
2022-11-14T09:02:44.170Z,46.05
2022-11-14T09:05:11.604Z,45.88
2022-11-14T09:07:38.378Z,49.40
2022-11-14T09:10:06.334Z,47.78
2022-11-14T09:12:33.539Z,43.67
2022-11-14T09:15:00.442Z,45.33
2022-11-14T09:17:27.517Z,46.50
2022-11-14T09:19:54.357Z,51.03
2022-11-14T09:22:20.908Z,51.10
2022-11-14T09:24:47.846Z,58.83
2022-11-14T09:27:14.605Z,50.75
2022-11-14T09:29:41.215Z,54.90
2022-11-14T09:32:07.879Z,54.53
2022-11-14T09:34:34.738Z,56.47
2022-11-14T09:37:01.292Z,57.47
2022-11-14T09:39:28.010Z,50.95
2022-11-14T09:41:57.956Z,52.70
2022-11-14T09:44:43.331Z,52.83
2022-11-14T09:47:21.461Z,55.55
2022-11-14T09:49:51.560Z,55.10
2022-11-14T09:52:30.285Z,53.20
2022-11-14T09:54:59.309Z,66.13
2022-11-14T09:57:26.941Z,60.72
2022-11-14T09:59:53.627Z,57.80
2022-11-14T10:02:41.749Z,63.25
2022-11-14T10:05:24.794Z,65.22
2022-11-14T10:08:07.381Z,67.18
2022-11-14T10:10:49.286Z,70.00
2022-11-14T10:13:55.525Z,68.60
2022-11-14T10:16:38.944Z,72.03
2022-11-14T10:19:40.036Z,69.15
2022-11-14T10:22:27.699Z,71.95
2022-11-14T10:25:29.342Z,75.85
2022-11-14T10:28:39.617Z,75.35
2022-11-14T10:31:15.098Z,74.60
2022-11-14T10:33:53.946Z,74.38
2022-11-14T10:36:29.422Z,72.30
2022-11-14T10:39:10.982Z,67.97
2022-11-14T10:44:32.824Z,70.68
2022-11-14T10:47:03.883Z,64.78
2022-11-14T10:49:36.205Z,66.72
2022-11-14T10:52:07.974Z,67.78
2022-11-14T10:54:41.891Z,65.97
2022-11-14T10:57:20.637Z,66.15
2022-11-14T10:59:47.621Z,63.60
2022-11-14T11:02:17.140Z,67.47
2022-11-14T11:04:45.466Z,69.95
2022-11-14T11:07:32.020Z,65.22
2022-11-14T11:10:21.384Z,64.63
2022-11-14T11:12:51.471Z,62.45
2022-11-14T11:15:29.806Z,63.75
2022-11-14T11:18:01.973Z,61.45
2022-11-14T11:20:28.647Z,64.18
2022-11-14T11:23:07.324Z,64.97
2022-11-14T11:25:34.524Z,69.20
2022-11-14T11:28:22.177Z,65.32
2022-11-14T11:30:57.001Z,63.63
2022-11-14T11:33:23.792Z,67.63
2022-11-14T11:35:52.992Z,67.95
2022-11-14T11:38:20.654Z,72.55
2022-11-14T11:40:51.954Z,67.97
2022-11-14T11:43:41.847Z,65.43
2022-11-14T11:46:26.850Z,69.50
2022-11-14T11:49:01.260Z,69.22
2022-11-14T11:51:28.826Z,73.05
2022-11-14T11:54:12.309Z,62.33
2022-11-14T11:56:40.240Z,69.90
2022-11-14T11:59:42.807Z,72.15
2022-11-14T12:02:26.883Z,77.85
2022-11-14T12:04:56.472Z,74.10
2022-11-14T12:07:31.100Z,66.57
2022-11-14T12:10:10.790Z,74.00
2022-11-14T12:12:43.586Z,76.90
2022-11-14T12:15:51.399Z,71.15
2022-11-14T12:18:31.538Z,71.30
2022-11-14T12:21:20.440Z,70.57
2022-11-14T12:24:02.093Z,71.00
2022-11-14T12:26:35.383Z,75.72
2022-11-14T12:29:19.799Z,79.13
2022-11-14T12:31:57.268Z,75.55
2022-11-14T12:34:32.520Z,76.03
2022-11-14T12:37:00.037Z,68.20
2022-11-14T12:39:31.639Z,70.05
2022-11-14T12:42:04.459Z,71.70
2022-11-14T12:44:34.091Z,72.05
2022-11-14T12:47:06.629Z,74.82
2022-11-14T12:49:38.605Z,74.45
2022-11-14T12:52:25.489Z,73.60
2022-11-14T12:54:52.265Z,72.22
2022-11-14T12:57:49.009Z,71.53
2022-11-14T13:00:18.313Z,70.93
2022-11-14T13:03:27.248Z,70.20
2022-11-14T13:06:20.062Z,74.43
2022-11-14T13:08:55.175Z,74.70
2022-11-14T13:12:01.769Z,76.18
2022-11-14T13:14:48.343Z,76.70
2022-11-14T13:17:36.568Z,72.22
2022-11-14T13:20:47.836Z,79.72
2022-11-14T13:23:30.041Z,74.22
2022-11-14T13:26:12.172Z,71.78
2022-11-14T13:28:38.763Z,80.22
2022-11-14T13:31:17.480Z,79.47
2022-11-14T13:33:49.139Z,71.50
2022-11-14T13:36:33.101Z,79.45
2022-11-14T13:39:34.453Z,72.15
2022-11-14T13:42:39.289Z,76.68
2022-11-14T13:45:37.746Z,72.00
2022-11-14T13:48:23.644Z,78.78
2022-11-14T13:51:06.272Z,73.50
2022-11-14T13:53:42.831Z,70.47
2022-11-14T13:56:36.937Z,73.50
2022-11-14T13:59:28.035Z,74.20
2022-11-14T14:02:36.695Z,75.75
2022-11-14T14:05:12.274Z,76.00
2022-11-14T14:07:41.484Z,77.60
2022-11-14T14:10:26.646Z,79.07
2022-11-14T14:13:05.396Z,71.13
2022-11-14T14:16:09.933Z,76.20
2022-11-14T14:18:52.588Z,77.22
2022-11-14T14:21:33.834Z,73.78
2022-11-14T14:24:23.024Z,73.55
2022-11-14T14:27:08.236Z,75.15
2022-11-14T14:29:45.642Z,86.05
2022-11-14T14:32:18.186Z,78.18
2022-11-14T14:34:45.138Z,80.43
2022-11-14T14:40:28.789Z,76.25
2022-11-14T14:42:59.282Z,79.72
2022-11-14T14:45:28.402Z,82.15
2022-11-14T14:48:06.810Z,72.93
2022-11-14T14:50:39.444Z,76.20
2022-11-14T14:53:06.490Z,81.53
2022-11-14T14:55:35.828Z,78.22
2022-11-14T14:58:26.388Z,84.25
2022-11-14T15:00:56.966Z,75.75
2022-11-14T15:03:25.995Z,83.57
2022-11-14T15:06:00.901Z,82.93
2022-11-14T15:08:30.984Z,81.68
2022-11-14T15:11:00.568Z,86.35
2022-11-14T15:13:29.818Z,91.68
2022-11-14T15:15:58.153Z,87.68
2022-11-14T15:18:29.714Z,88.93
2022-11-14T15:21:24.632Z,84.72
2022-11-14T15:24:03.718Z,88.30
2022-11-14T15:26:31.734Z,88.88
2022-11-14T15:29:17.810Z,92.78
2022-11-14T15:31:50.479Z,85.72
2022-11-14T15:34:35.275Z,89.80
2022-11-14T15:37:13.310Z,94.90
2022-11-14T15:39:41.408Z,91.65
2022-11-14T15:42:29.380Z,91.63
2022-11-14T15:44:56.367Z,87.40
2022-11-14T15:47:40.405Z,89.97
2022-11-14T15:50:12.899Z,92.93
2022-11-14T15:52:56.394Z,96.55
2022-11-14T15:55:24.154Z,97.57
2022-11-14T15:58:00.895Z,92.65
2022-11-14T16:00:44.610Z,107.80
2022-11-14T16:03:14.389Z,109.32
2022-11-14T16:05:41.323Z,106.32
2022-11-14T16:08:11.265Z,105.32
2022-11-14T16:10:38.252Z,98.25
2022-11-14T16:13:05.835Z,105.00
2022-11-14T16:15:32.493Z,100.78
2022-11-14T16:17:59.135Z,109.40
2022-11-14T16:20:32.707Z,109.78
2022-11-14T16:23:01.234Z,106.93
2022-11-14T16:25:30.064Z,109.72
2022-11-14T16:27:56.745Z,104.70
2022-11-14T16:30:25.273Z,105.40
2022-11-14T16:32:52.885Z,99.72
2022-11-14T16:35:21.434Z,118.00
2022-11-14T16:37:48.491Z,109.57
2022-11-14T16:40:23.262Z,115.10
2022-11-14T16:42:50.878Z,116.65
2022-11-14T16:45:20.651Z,120.53
2022-11-14T16:47:48.434Z,122.25
2022-11-14T16:50:15.644Z,128.88
2022-11-14T16:52:42.211Z,128.23
2022-11-14T16:55:11.046Z,120.93
2022-11-14T16:57:38.830Z,142.18
2022-11-14T17:00:08.519Z,137.45
2022-11-14T17:02:35.135Z,129.13
2022-11-14T17:05:01.870Z,125.03
2022-11-14T17:07:33.058Z,131.32
2022-11-14T17:10:00.621Z,137.88
2022-11-14T17:12:28.282Z,132.55
2022-11-14T17:14:54.827Z,148.45
2022-11-14T17:17:21.896Z,136.23
2022-11-14T17:19:48.819Z,115.40
2022-11-14T17:22:18.339Z,131.60
2022-11-14T17:24:44.996Z,114.90
2022-11-14T17:27:13.242Z,115.20
2022-11-14T17:29:40.044Z,124.40
2022-11-14T17:32:06.928Z,121.18
2022-11-14T17:34:33.610Z,116.57
2022-11-14T17:37:00.578Z,122.63
2022-11-14T17:39:27.231Z,122.00
2022-11-14T17:41:53.884Z,131.77
2022-11-14T17:44:20.547Z,129.07
2022-11-14T17:46:48.191Z,131.95
2022-11-14T17:49:14.820Z,130.93
2022-11-14T17:51:41.609Z,120.05
2022-11-14T17:54:09.073Z,120.72
2022-11-14T17:56:35.717Z,115.72
2022-11-14T17:59:03.062Z,117.95
2022-11-14T18:01:31.482Z,123.07
2022-11-14T18:04:03.021Z,120.28
2022-11-14T18:06:33.797Z,126.60
2022-11-14T18:09:04.863Z,135.55
2022-11-14T18:11:32.620Z,131.05
2022-11-14T18:13:59.214Z,131.88
2022-11-14T18:16:31.349Z,137.00
2022-11-14T18:19:01.784Z,130.20
2022-11-14T18:21:28.779Z,134.50
2022-11-14T18:23:58.166Z,126.57
2022-11-14T18:26:29.896Z,132.95
2022-11-14T18:29:02.404Z,133.45
2022-11-14T18:31:29.598Z,124.43
2022-11-14T18:33:57.033Z,126.25
2022-11-14T18:36:24.430Z,131.20
2022-11-14T18:38:51.050Z,124.75
2022-11-14T18:41:21.155Z,123.18
2022-11-14T18:43:49.042Z,128.70
2022-11-14T18:46:18.541Z,121.95
2022-11-14T18:48:47.229Z,127.80
2022-11-14T18:51:19.933Z,125.18
2022-11-14T18:53:47.092Z,132.18
2022-11-14T18:56:16.208Z,122.18
2022-11-14T18:58:44.111Z,125.95
2022-11-14T19:01:24.148Z,130.50
2022-11-14T19:04:11.930Z,131.77
2022-11-14T19:06:40.714Z,124.18
2022-11-14T19:09:15.906Z,125.45
2022-11-14T19:12:01.715Z,117.70
2022-11-14T19:14:28.805Z,126.10
2022-11-14T19:16:55.501Z,112.90
2022-11-14T19:19:22.351Z,125.93
2022-11-14T19:21:50.770Z,117.13
2022-11-14T19:24:18.184Z,109.47
2022-11-14T19:26:44.964Z,95.75
2022-11-14T19:29:13.916Z,101.45
2022-11-14T19:31:42.090Z,89.15
2022-11-14T19:34:09.900Z,104.97
2022-11-14T19:39:24.129Z,112.10
2022-11-14T19:41:50.761Z,81.95
2022-11-14T19:44:17.293Z,110.88
2022-11-14T19:46:47.492Z,100.85
2022-11-14T19:49:15.339Z,102.40
2022-11-14T19:51:42.088Z,96.43
2022-11-14T19:54:10.050Z,92.32
2022-11-14T19:56:37.025Z,136.25
2022-11-14T19:59:09.579Z,171.02
2022-11-14T20:01:40.246Z,167.52
2022-11-14T20:04:07.615Z,201.75
2022-11-14T20:06:36.482Z,211.40
2022-11-14T20:09:08.843Z,205.23
2022-11-14T20:11:36.132Z,223.15
2022-11-14T20:14:02.964Z,183.93
2022-11-14T20:16:35.625Z,187.30
2022-11-14T20:19:02.219Z,245.30
2022-11-14T20:21:32.490Z,237.77
2022-11-14T20:23:59.575Z,228.88
2022-11-14T20:26:26.741Z,229.35
2022-11-14T20:28:54.668Z,231.10
2022-11-14T20:31:27.385Z,220.52
2022-11-14T20:33:55.332Z,236.40
2022-11-14T20:36:32.035Z,238.68
2022-11-14T20:39:02.282Z,240.02
2022-11-14T20:41:28.880Z,253.77
2022-11-14T20:43:55.485Z,237.18
2022-11-14T20:46:22.301Z,235.80
2022-11-14T20:48:49.336Z,248.85
2022-11-14T20:51:21.575Z,256.58
2022-11-14T20:53:50.085Z,285.70
2022-11-14T20:56:17.217Z,276.58
2022-11-14T20:58:45.566Z,281.50
2022-11-14T21:01:13.055Z,241.75
2022-11-14T21:03:40.200Z,246.68
2022-11-14T21:06:08.225Z,254.05
2022-11-14T21:08:36.412Z,252.45
2022-11-14T21:11:08.682Z,263.73
2022-11-14T21:13:55.899Z,281.48
2022-11-14T21:16:35.659Z,292.40
2022-11-14T21:19:04.085Z,293.70
2022-11-14T21:21:34.873Z,270.17
2022-11-14T21:24:02.020Z,280.73
2022-11-14T21:26:31.326Z,277.63
2022-11-14T21:29:00.970Z,260.23
2022-11-14T21:31:32.033Z,263.60
2022-11-14T21:34:00.425Z,234.45
2022-11-14T21:36:45.407Z,236.98
2022-11-14T21:39:15.446Z,230.30
2022-11-14T21:41:43.390Z,235.60
2022-11-14T21:44:15.041Z,222.38
2022-11-14T21:46:41.994Z,217.65
2022-11-14T21:49:09.195Z,206.27
2022-11-14T21:51:36.075Z,223.73
2022-11-14T21:54:06.632Z,210.07
2022-11-14T21:56:35.242Z,205.75
2022-11-14T21:59:16.000Z,210.23
2022-11-14T22:02:08.488Z,209.45
2022-11-14T22:04:35.968Z,202.45
2022-11-14T22:07:07.466Z,193.23
2022-11-14T22:09:35.099Z,211.30
2022-11-14T22:12:02.271Z,207.88
2022-11-14T22:14:29.937Z,208.45
2022-11-14T22:16:58.028Z,211.57
2022-11-14T22:19:25.632Z,212.65
2022-11-14T22:21:53.076Z,187.25
2022-11-14T22:24:19.753Z,202.68
2022-11-14T22:26:46.406Z,198.90
2022-11-14T22:29:13.130Z,191.60
2022-11-14T22:31:39.830Z,178.65
2022-11-14T22:34:06.977Z,171.70
2022-11-14T22:36:33.820Z,170.95
2022-11-14T22:39:00.478Z,162.70
2022-11-14T22:41:33.485Z,141.35
2022-11-14T22:44:01.452Z,136.63
2022-11-14T22:46:28.685Z,150.95
2022-11-14T22:48:55.602Z,159.85
2022-11-14T22:51:24.288Z,157.15
2022-11-14T22:53:53.712Z,170.93
2022-11-14T22:56:23.461Z,126.13
2022-11-14T22:58:50.814Z,134.23
2022-11-14T23:01:26.289Z,131.57
2022-11-14T23:04:01.192Z,123.45
2022-11-14T23:06:30.624Z,125.97
2022-11-14T23:08:57.658Z,130.15
2022-11-14T23:11:29.704Z,127.60
2022-11-14T23:13:57.520Z,139.55
2022-11-14T23:16:26.541Z,151.25
2022-11-14T23:18:55.524Z,144.73
2022-11-14T23:21:25.427Z,150.00
2022-11-14T23:23:53.618Z,148.02
2022-11-14T23:26:20.982Z,149.30
2022-11-14T23:28:47.621Z,142.95
2022-11-14T23:31:19.517Z,153.30
2022-11-14T23:33:47.074Z,150.98
2022-11-14T23:36:14.239Z,151.55
2022-11-14T23:38:41.762Z,154.85
2022-11-14T23:41:16.093Z,145.38
2022-11-14T23:43:42.907Z,141.75
2022-11-14T23:46:09.576Z,144.00
2022-11-14T23:48:36.228Z,147.77
2022-11-14T23:51:03.039Z,144.88
2022-11-14T23:53:30.488Z,138.55
2022-11-14T23:55:59.592Z,125.30
2022-11-14T23:58:27.871Z,137.68
